• Join FlightAware (Why Join?)
  • Login
  • US Flag 
10:30AM EDT


 

Airport Tracker/Info


-or-


 

Live Flight TrackerFlight Track Log ✈ FLG4262 ✈ 18-Sep-2013 ✈ KDTW - KBGM

Flight Track Log - Related Links

Times and Time Zones

All times are in EDT time to prevent confusion due to time zone crossing. See the FLG4262 flight status page for this flight to view local times or setup timezone preferences in your user account.

Time Position Orientation Groundspeed Altitude Reporting Facility
EDT Latitude Longitude Course Direction KTS MPH feet Rate Location/Type
03:46PM 42.1739 -83.3514 179° South 157 181 2,300  Level Cleveland Center
03:47PM 42.1256 -83.3503 179° South 198 228 4,200 1,680 Climbing Cleveland Center
03:48PM 42.1078 -83.3497 179° South 190 219 4,600 1,500 Climbing Cleveland Center
03:48PM 42.0728 -83.3286 156° South 278 320 5,600 2,280 Climbing Cleveland Center
03:49PM 42.0675 -83.2722 97° East 270 311 7,000 2,820 Climbing Cleveland Center
03:49PM 42.0822 -83.2089 73° East 282 325 8,800 2,220 Climbing Cleveland Center
03:50PM 42.0853 -83.1800 82° East 287 330 9,300 1,440 Climbing Cleveland Center
03:50PM 42.1150 -83.1067 61° Northeast 323 372 10,300 1,440 Climbing Cleveland Center
03:51PM 42.1347 -83.0533 63° Northeast 327 376 10,800 1,620 Climbing Cleveland Center
03:52PM 42.1800 -82.9369 62° Northeast 353 406 12,800 1,740 Climbing Cleveland Center
03:53PM 42.2267 -82.8161 62° Northeast 364 419 14,400 1,440 Climbing Cleveland Center
03:54PM 42.2750 -82.6931 62° Northeast 373 429 15,900 1,440 Climbing Cleveland Center
03:55PM 42.3239 -82.5681 62° Northeast 377 434 17,500 1,260 Climbing Cleveland Center
03:56PM 42.3644 -82.4069 71° East 390 449 18,600 960 Climbing Cleveland Center
03:57PM 42.3600 -82.2625 92° East 387 445 19,600 960 Climbing Cleveland Center
03:58PM 42.3531 -82.1103 93° East 395 455 20,600 960 Climbing Cleveland Center
03:59PM 42.3464 -81.9589 93° East 399 459 21,600 960 Climbing Cleveland Center
04:00PM 42.3397 -81.8056 93° East 404 465 22,700 960 Climbing Cleveland Center
04:01PM 42.3325 -81.6522 94° East 404 465 23,700 960 Climbing Cleveland Center
04:02PM 42.3256 -81.4989 93° East 405 466 24,700 1,020 Climbing Cleveland Center
04:03PM 42.3175 -81.3208 93° East 403 464 25,900 1,020 Climbing Cleveland Center
04:04PM 42.3100 -81.1692 94° East 401 461 26,900 480 Climbing Cleveland Center
04:05PM 42.3017 -81.0153 94° East 405 466 27,000  Climbing Cleveland Center
04:06PM 42.2939 -80.8547 94° East 420 483 27,000  Level Cleveland Center
04:07PM 42.2842 -80.6872 94° East 437 503 27,000 -300 Level Cleveland Center
04:08PM 42.2839 -80.5172 90° East 447 514 26,500 -780 Descending Cleveland Center
04:09PM 42.2839 -80.3386 90° East 467 537 25,500 -780 Descending Cleveland Center
04:10PM 42.2847 -80.1569 90° East 479 551 25,000 -300 Descending Cleveland Center
04:11PM 42.2842 -79.9647 90° East 475 547 25,000  Level Cleveland Center
04:13PM 42.2833 -79.7886 90° East 473 544 25,000  Level Cleveland Center
04:14PM 42.2822 -79.5767 90° East 474 545 25,000  Level Cleveland Center
04:15PM 42.2814 -79.4022 90° East 469 540 25,000  Level Cleveland Center
04:16PM 42.2800 -79.2258 91° East 473 544 25,000  Level Cleveland Center
04:17PM 42.2778 -79.0506 91° East 470 541 25,000  Level Cleveland Center
04:18PM 42.2767 -78.8572 90° East 471 542 25,000  Level Cleveland Center
04:19PM 42.2742 -78.6811 91° East 470 541 25,000  Level Cleveland Center
04:20PM 42.2725 -78.5044 91° East 472 543 25,000  Level Cleveland Center
04:21PM 42.2694 -78.3297 91° East 471 542 25,000  Level Cleveland Center
04:22PM 42.2661 -78.1219 91° East 467 537 25,000 -120 Level Cleveland Center
04:23PM 42.2628 -77.9478 91° East 467 537 24,800 -780 Descending Cleveland Center
04:24PM 42.2592 -77.7733 92° East 471 542 23,500 -1,260 Descending Cleveland Center
04:25PM 42.2558 -77.6050 91° East 459 528 22,200 -1,260 Descending Cleveland Center
04:26PM 42.2528 -77.4419 91° East 444 511 20,900 -1,440 Descending Cleveland Center
04:27PM 42.2478 -77.2494 92° East 434 499 19,300 -1,080 Descending Cleveland Center
04:28PM 42.2433 -77.1153 93° East 436 502 19,000 -780 Descending New York Center
04:29PM 42.2411 -76.9583 91° East 426 490 18,000 -1,860 Descending New York Center
04:30PM 42.2364 -76.8094 92° East 415 478 15,300 -2,700 Descending New York Center
04:31PM 42.2297 -76.6883 94° East 390 449 12,600 -2,640 Descending New York Center
04:32PM 42.2275 -76.5678 91° East 352 405 10,100 -1,860 Descending New York Center
04:33PM 42.2222 -76.4608 94° East 312 359 8,900 -1,200 Descending New York Center
04:34PM 42.2211 -76.3542 91° East 291 335 7,800 -1,380 Descending New York Center
04:35PM 42.2403 -76.2550 75° East 271 312 6,200 -1,560 Descending New York Center
04:36PM 42.2608 -76.1672 72° East 259 298 4,700 -1,320 Descending New York Center
04:37PM 42.2808 -76.0903 71° East 233 268 3,600 -900 Descending New York Center
04:38PM 42.2672 -76.0275 106° East 206 237 2,900 -600 Descending New York Center
04:39PM 42.2336 -75.9856 137° Southeast 162 186 2,400 -540 Descending New York Center